Time;durP1;ratioP1;P1;durP2;ratioP2;P2;SDS_P1;SDS_P2;PMS_P1;PMS_P2;Temp;Humidity;BMP_temperature;BMP_pressure;BME280_temperature;BME280_humidity;BME280_pressure;Samples;Min_cycle;Max_cycle;Signal;HPM_P1;HPM_P2
2022/04/19 00:00:36;;;;;;;13.50;9.27;;;;;;;12.02;45.18;101428.84;7390934;19;20022;-58
2022/04/19 00:03:06;;;;;;;13.82;9.52;;;;;;;11.87;45.23;101417.16;7392129;19;20021;-53
2022/04/19 00:05:36;;;;;;;12.98;8.82;;;;;;;12.02;44.76;101426.22;7391833;19;20014;-54
2022/04/19 00:08:05;;;;;;;12.82;8.75;;;;;;;11.82;45.02;101418.25;7391908;19;20048;-56
2022/04/19 00:10:37;;;;;;;10.68;8.82;;;;;;;11.89;44.94;101415.34;7390822;19;20014;-57
2022/04/19 00:13:08;;;;;;;12.63;9.27;;;;;;;11.98;44.92;101419.38;7389813;19;20025;-58
2022/04/19 00:15:38;;;;;;;12.50;8.88;;;;;;;11.90;45.51;101411.75;7391774;19;20033;-59
2022/04/19 00:18:09;;;;;;;12.43;9.00;;;;;;;11.76;45.12;101414.09;7392019;19;20054;-59
2022/04/19 00:20:38;;;;;;;12.07;9.02;;;;;;;11.76;45.72;101417.59;7390048;19;20014;-57
2022/04/19 00:23:12;;;;;;;11.07;8.93;;;;;;;11.70;45.39;101412.56;7388126;19;20107;-59
2022/04/19 00:25:45;;;;;;;12.88;8.98;;;;;;;11.63;45.29;101410.25;7390988;19;20478;-60
2022/04/19 00:28:14;;;;;;;12.50;9.30;;;;;;;11.66;45.47;101413.59;7391158;19;20018;-54
2022/04/19 00:30:46;;;;;;;17.90;9.52;;;;;;;11.51;45.52;101412.44;7389722;19;20029;-54
2022/04/19 00:33:14;;;;;;;13.93;9.57;;;;;;;11.46;46.16;101406.50;7389694;19;20042;-56
2022/04/19 00:35:44;;;;;;;13.63;9.68;;;;;;;11.40;46.22;101407.63;7389159;19;20452;-53
2022/04/19 00:38:13;;;;;;;14.07;8.95;;;;;;;11.50;45.83;101407.25;7390548;19;20018;-59
2022/04/19 00:40:45;;;;;;;11.95;9.30;;;;;;;11.41;46.05;101401.44;7389607;19;20125;-59
2022/04/19 00:43:14;;;;;;;12.60;9.33;;;;;;;11.45;45.81;101404.81;7388862;19;20030;-59
2022/04/19 00:45:44;;;;;;;14.80;9.57;;;;;;;11.32;46.17;101396.56;7389039;19;20011;-59
2022/04/19 00:48:13;;;;;;;11.65;9.45;;;;;;;11.42;45.88;101403.16;7388394;19;20021;-58
2022/04/19 00:50:42;;;;;;;11.85;9.18;;;;;;;11.39;45.96;101397.16;7387702;19;20019;-59
2022/04/19 00:53:14;;;;;;;13.90;9.70;;;;;;;11.35;45.99;101399.06;7386860;19;20508;-56
2022/04/19 00:55:47;;;;;;;14.73;9.48;;;;;;;11.55;45.88;101397.44;7388567;19;20310;-58
2022/04/19 00:58:17;;;;;;;13.93;9.48;;;;;;;11.39;45.33;101399.78;7388799;19;20011;-61
2022/04/19 01:00:52;;;;;;;13.48;9.50;;;;;;;11.47;45.80;101396.88;7388372;19;20026;-59
2022/04/19 01:03:24;;;;;;;12.88;9.25;;;;;;;11.41;46.01;101401.44;7386456;19;20026;-58
2022/04/19 01:05:56;;;;;;;12.90;9.33;;;;;;;11.33;45.59;101400.03;7387767;19;20347;-59
2022/04/19 01:08:25;;;;;;;12.15;9.38;;;;;;;11.32;45.73;101401.81;7388315;19;20610;-58
2022/04/19 01:13:50;;;;;;;13.65;9.27;;;;;;;11.36;46.50;101399.91;7385470;19;20082;-59
2022/04/19 01:16:20;;;;;;;12.68;10.10;;;;;;;11.32;45.42;101403.53;7387379;19;20011;-58
2022/04/19 01:18:50;;;;;;;13.85;9.48;;;;;;;11.47;45.44;101402.97;7387173;19;20014;-59
2022/04/19 01:21:19;;;;;;;13.57;9.48;;;;;;;11.39;45.62;101402.41;7386679;19;20007;-58
2022/04/19 01:23:51;;;;;;;12.60;9.43;;;;;;;11.39;45.12;101407.66;7386126;19;20007;-58
2022/04/19 01:26:21;;;;;;;14.57;9.80;;;;;;;11.45;45.86;101403.94;7387364;19;20017;-60
2022/04/19 01:28:50;;;;;;;13.13;9.63;;;;;;;11.39;45.91;101398.03;7388586;19;20010;-57
2022/04/19 01:31:19;;;;;;;13.18;10.20;;;;;;;11.38;45.16;101403.34;7386275;19;20022;-59
2022/04/19 01:33:50;;;;;;;12.68;9.13;;;;;;;11.37;44.80;101402.47;7386409;19;20456;-57
2022/04/19 01:36:19;;;;;;;13.00;9.48;;;;;;;11.32;44.83;101404.41;7387582;19;20042;-59
2022/04/19 01:38:53;;;;;;;12.15;9.65;;;;;;;11.33;45.12;101394.78;7386619;19;20336;-59
2022/04/19 01:41:25;;;;;;;12.20;9.55;;;;;;;11.28;45.15;101394.94;7386497;19;20018;-58
2022/04/19 01:43:57;;;;;;;;;;;;;;;11.35;46.35;101396.44;7386653;19;20377;-59
2022/04/19 01:46:26;;;;;;;13.23;9.55;;;;;;;11.33;45.08;101398.25;7388510;19;19929;-59
2022/04/19 01:48:56;;;;;;;13.85;10.02;;;;;;;11.27;45.40;101393.22;7386050;19;20026;-59
2022/04/19 01:51:26;;;;;;;15.80;10.48;;;;;;;11.17;46.51;101384.00;7386913;19;20523;-59
2022/04/19 01:53:59;;;;;;;12.70;9.32;;;;;;;11.04;45.29;101373.13;7385438;19;20452;-54
2022/04/19 01:56:28;;;;;;;12.07;8.90;;;;;;;11.05;45.85;101382.72;7387134;19;20462;-59
2022/04/19 01:58:57;;;;;;;14.57;9.70;;;;;;;11.11;45.74;101377.22;7387297;19;20519;-59
2022/04/19 02:01:41;;;;;;;12.85;9.93;;;;;;;11.09;46.74;101373.81;7389890;19;20022;-59
2022/04/19 02:04:10;;;;;;;14.98;10.20;;;;;;;11.04;45.49;101376.59;7385891;19;20333;-59
2022/04/19 02:06:40;;;;;;;14.27;10.00;;;;;;;10.93;45.79;101380.53;7387718;19;20018;-59
2022/04/19 02:09:11;;;;;;;14.20;9.68;;;;;;;10.93;46.03;101376.13;7387397;19;20375;-59
2022/04/19 02:11:41;;;;;;;13.30;10.02;;;;;;;10.99;47.11;101373.31;7387548;19;20074;-58
2022/04/19 02:14:22;;;;;;;15.55;9.95;;;;;;;11.04;46.00;101370.50;7387953;19;20443;-58
2022/04/19 02:16:53;;;;;;;14.50;9.70;;;;;;;10.99;46.37;101377.66;7395758;19;20036;-58
2022/04/19 02:19:22;;;;;;;13.40;10.15;;;;;;;10.97;46.36;101371.66;7394318;19;20492;-59
2022/04/19 02:21:51;;;;;;;13.32;9.48;;;;;;;10.97;47.00;101364.63;7395709;19;20024;-60
2022/04/19 02:24:23;;;;;;;20.13;9.88;;;;;;;10.93;46.66;101370.03;7396647;19;20022;-60
2022/04/19 02:26:53;;;;;;;17.17;9.98;;;;;;;10.92;46.85;101369.19;7394441;19;20018;-59
2022/04/19 02:29:25;;;;;;;12.93;9.18;;;;;;;10.92;46.57;101371.81;7393577;19;20523;-60
2022/04/19 02:31:54;;;;;;;15.30;10.43;;;;;;;10.98;46.94;101360.25;7395001;19;20360;-60
2022/04/19 02:34:23;;;;;;;13.15;9.38;;;;;;;11.00;46.63;101367.13;7394433;19;20389;-60
2022/04/19 02:36:53;;;;;;;14.02;9.75;;;;;;;10.91;46.41;101359.63;7393521;19;20022;-59
2022/04/19 02:39:25;;;;;;;15.13;10.10;;;;;;;10.84;46.48;101368.63;7392278;19;20025;-59
2022/04/19 02:41:55;;;;;;;14.97;9.87;;;;;;;10.83;46.81;101353.78;7392970;19;20020;-58
2022/04/19 02:44:25;;;;;;;14.50;10.15;;;;;;;10.77;47.18;101359.25;7393774;19;20018;-59
2022/04/19 02:47:05;;;;;;;17.88;9.73;;;;;;;10.88;47.35;101351.88;7393507;19;20011;-59
2022/04/19 02:49:36;;;;;;;20.60;15.18;;;;;;;10.72;47.59;101359.44;7392730;19;20014;-58
2022/04/19 02:52:06;;;;;;;15.13;10.55;;;;;;;10.67;47.37;101354.34;7393086;19;20011;-58
2022/04/19 02:54:38;;;;;;;14.00;10.38;;;;;;;10.66;48.34;101357.91;7393752;19;20110;-59
2022/04/19 02:57:07;;;;;;;16.00;9.98;;;;;;;10.61;48.61;101359.81;7395249;19;20014;-58
2022/04/19 02:59:42;;;;;;;15.13;9.93;;;;;;;10.55;48.77;101346.94;7389799;19;20022;-57
2022/04/19 03:02:11;;;;;;;14.55;10.10;;;;;;;10.64;48.15;101354.44;7396234;19;20290;-58
2022/04/19 03:04:40;;;;;;;17.17;10.20;;;;;;;10.52;48.33;101345.28;7392458;19;20017;-59
2022/04/19 03:07:09;;;;;;;13.90;9.95;;;;;;;10.51;47.95;101346.19;7393263;19;20018;-59
2022/04/19 03:09:41;;;;;;;14.05;9.88;;;;;;;10.46;48.52;101347.25;7393590;19;20025;-57
2022/04/19 03:12:14;;;;;;;15.35;10.35;;;;;;;10.25;47.91;101352.31;7393359;19;20034;-61
2022/04/19 03:14:55;;;;;;;14.65;10.65;;;;;;;10.23;48.47;101356.75;7392027;19;20033;-59
2022/04/19 03:17:24;;;;;;;13.80;9.70;;;;;;;10.21;49.60;101367.28;7392503;19;20015;-57
2022/04/19 03:19:53;;;;;;;15.90;10.10;;;;;;;10.04;48.52;101353.88;7390284;19;20294;-59
2022/04/19 03:22:23;;;;;;;14.95;10.43;;;;;;;9.95;48.77;101348.97;7392342;19;20026;-59
2022/04/19 03:27:46;;;;;;;15.85;10.05;;;;;;;9.95;48.86;101352.44;7393604;19;20518;-60
2022/04/19 03:30:20;;;;;;;15.60;10.30;;;;;;;9.96;49.04;101353.31;7390513;19;20022;-60
2022/04/19 03:32:53;;;;;;;14.70;10.20;;;;;;;9.92;49.08;101355.16;7390318;19;20017;-60
2022/04/19 03:35:22;;;;;;;16.48;10.70;;;;;;;10.06;49.31;101357.31;7393322;19;20022;-58
2022/04/19 03:37:51;;;;;;;15.20;10.68;;;;;;;10.14;49.07;101357.88;7392049;19;20014;-54
2022/04/19 03:40:24;;;;;;;15.77;10.25;;;;;;;10.18;49.06;101350.81;7389037;19;20025;-58
2022/04/19 03:42:55;;;;;;;17.95;11.13;;;;;;;10.12;50.03;101358.88;7389981;19;20014;-59
2022/04/19 03:45:25;;;;;;;17.63;10.80;;;;;;;10.19;49.67;101363.00;7391141;19;20106;-59
2022/04/19 03:47:54;;;;;;;15.23;10.65;;;;;;;10.08;50.19;101360.72;7391043;19;20046;-59
2022/04/19 03:50:24;;;;;;;15.57;10.68;;;;;;;10.10;50.25;101358.94;7390849;19;20018;-59
2022/04/19 03:52:53;;;;;;;16.17;10.27;;;;;;;10.17;50.42;101355.19;7388977;19;20049;-58
2022/04/19 03:55:26;;;;;;;15.57;10.68;;;;;;;9.98;51.39;101354.09;7390688;19;20014;-59
2022/04/19 03:57:55;;;;;;;93.45;14.25;;;;;;;10.10;50.68;101363.28;7390668;19;20346;-59
2022/04/19 04:00:24;;;;;;;31.48;11.82;;;;;;;10.11;50.68;101365.00;7388320;19;20017;-59
2022/04/19 04:02:55;;;;;;;45.97;12.32;;;;;;;9.97;50.71;101353.25;7390774;19;20021;-60
2022/04/19 04:05:29;;;;;;;25.42;11.32;;;;;;;9.99;50.88;101356.66;7392005;19;20357;-60
2022/04/19 04:08:00;;;;;;;15.95;11.00;;;;;;;10.06;50.64;101354.69;7391531;19;20018;-59
2022/04/19 04:10:36;;;;;;;15.38;10.23;;;;;;;9.96;49.62;101369.00;7390804;19;20010;-60
2022/04/19 04:13:05;;;;;;;15.70;10.95;;;;;;;9.94;49.71;101362.94;7390109;19;20018;-60
2022/04/19 04:15:37;;;;;;;16.98;10.40;;;;;;;10.03;49.63;101362.66;7391309;19;20076;-59
2022/04/19 04:18:08;;;;;;;23.45;11.50;;;;;;;10.04;49.54;101365.22;7393130;19;20345;-59
2022/04/19 04:20:37;;;;;;;16.45;10.52;;;;;;;10.15;49.32;101359.63;7389483;19;20479;-58
2022/04/19 04:23:07;;;;;;;16.13;10.68;;;;;;;10.11;49.66;101363.25;7390206;19;20487;-60
2022/04/19 04:25:38;;;;;;;16.13;10.50;;;;;;;10.07;48.91;101373.88;7390969;19;20015;-58
2022/04/19 04:28:08;;;;;;;16.08;10.73;;;;;;;10.04;49.72;101366.97;7391960;19;20022;-57
2022/04/19 04:30:45;;;;;;;16.10;10.60;;;;;;;10.05;49.21;101372.16;7389541;19;20030;-59
2022/04/19 04:33:14;;;;;;;15.20;10.40;;;;;;;10.02;49.42;101372.25;7389145;19;20011;-58
2022/04/19 04:35:43;;;;;;;16.10;10.45;;;;;;;9.91;50.27;101381.38;7390172;19;20109;-58
2022/04/19 04:38:12;;;;;;;15.80;10.45;;;;;;;9.99;50.40;101379.38;7389401;19;20014;-59
2022/04/19 04:40:45;;;;;;;15.93;10.50;;;;;;;10.07;49.58;101379.97;7388486;19;20025;-58
2022/04/19 04:43:15;;;;;;;15.48;10.07;;;;;;;9.92;49.87;101386.56;7389183;19;20336;-58
2022/04/19 04:45:44;;;;;;;14.98;10.20;;;;;;;10.00;49.50;101388.91;7390243;19;20018;-59
2022/04/19 04:50:58;;;;;;;15.65;10.73;;;;;;;10.05;50.04;101384.41;7388797;19;20096;-59
2022/04/19 04:53:27;;;;;;;16.08;10.85;;;;;;;10.06;49.82;101380.88;7388162;19;20353;-60
2022/04/19 04:56:23;;;;;;;16.65;11.13;;;;;;;10.05;49.73;101392.25;7389604;19;20014;-59
2022/04/19 04:58:53;;;;;;;18.38;11.75;;;;;;;10.13;50.46;101392.00;7389678;19;20044;-57
2022/04/19 05:01:22;;;;;;;16.00;10.70;;;;;;;10.14;49.83;101389.31;7390403;19;20021;-59
2022/04/19 05:03:51;;;;;;;16.30;11.35;;;;;;;10.05;50.10;101394.88;7388833;19;20016;-59
2022/04/19 05:06:21;;;;;;;18.30;11.90;;;;;;;10.04;50.12;101387.91;7389164;19;20115;-59
2022/04/19 05:08:50;;;;;;;16.05;10.88;;;;;;;10.07;49.86;101394.81;7389024;19;20029;-57
2022/04/19 05:11:22;;;;;;;18.75;11.43;;;;;;;10.13;50.01;101394.59;7388676;19;20027;-59
2022/04/19 05:13:51;;;;;;;18.00;11.77;;;;;;;10.12;49.88;101391.16;7398915;19;20081;-59
2022/04/19 05:16:20;;;;;;;16.42;11.02;;;;;;;10.09;50.26;101386.00;7402136;19;20057;-58
2022/04/19 05:18:49;;;;;;;22.45;11.30;;;;;;;10.17;50.24;101394.47;7388858;19;20014;-59
2022/04/19 05:21:18;;;;;;;18.50;11.50;;;;;;;10.25;49.91;101393.38;7387015;19;20011;-59
2022/04/19 05:23:48;;;;;;;18.65;11.45;;;;;;;10.22;50.33;101396.94;7387239;19;20097;-61
2022/04/19 05:26:28;;;;;;;22.40;11.65;;;;;;;10.25;49.58;101393.38;7389549;19;20025;-60
2022/04/19 05:28:57;;;;;;;15.50;10.57;;;;;;;10.19;49.06;101391.81;7388501;19;20078;-60
2022/04/19 05:31:26;;;;;;;20.95;11.60;;;;;;;10.27;49.66;101386.28;7388991;19;20029;-59
2022/04/19 05:33:56;;;;;;;16.85;11.07;;;;;;;10.32;49.07;101381.78;7386875;19;20048;-60
2022/04/19 05:36:25;;;;;;;22.10;11.60;;;;;;;10.38;49.37;101389.44;7388326;19;20018;-61
2022/04/19 05:38:55;;;;;;;16.90;11.55;;;;;;;10.46;49.59;101376.06;7388155;19;20014;-59
2022/04/19 05:41:28;;;;;;;18.20;11.85;;;;;;;10.49;49.12;101379.44;7386656;19;20078;-60
2022/04/19 05:43:58;;;;;;;17.20;11.20;;;;;;;10.56;48.88;101380.09;7387499;19;20341;-60
2022/04/19 05:46:27;;;;;;;16.45;11.63;;;;;;;10.63;49.41;101384.22;7388085;19;20422;-60
2022/04/19 05:48:56;;;;;;;21.35;12.05;;;;;;;10.67;49.70;101375.31;7388572;19;20034;-60
2022/04/19 05:51:25;;;;;;;24.30;11.57;;;;;;;10.74;49.68;101383.81;7388097;19;20065;-60
2022/04/19 05:53:54;;;;;;;23.55;10.43;;;;;;;10.73;48.59;101382.97;7386461;19;20018;-60
2022/04/19 05:56:23;;;;;;;17.95;11.20;;;;;;;10.83;49.09;101382.63;7388346;19;20156;-58
2022/04/19 05:58:55;;;;;;;17.95;11.40;;;;;;;10.94;49.13;101387.50;7387801;19;20019;-57
2022/04/19 06:04:51;;;;;;;36.13;14.77;;;;;;;10.99;48.73;101375.06;7390070;19;20101;-54
2022/04/19 06:06:58;;;;;;;18.17;11.18;;;;;;;11.07;48.30;101384.38;7388669;19;20021;-59
2022/04/19 06:09:31;;;;;;;17.55;11.48;;;;;;;11.17;47.59;101384.00;7388819;19;20045;-57
2022/04/19 06:12:00;;;;;;;22.83;11.77;;;;;;;11.22;47.44;101389.94;7389742;19;20018;-58
2022/04/19 06:14:35;;;;;;;19.27;11.13;;;;;;;11.28;48.13;101396.72;7388392;19;20021;-58
2022/04/19 06:17:04;;;;;;;16.17;10.50;;;;;;;11.26;46.71;101388.91;7387802;19;20073;-59
2022/04/19 06:19:33;;;;;;;16.27;11.00;;;;;;;11.33;46.78;101397.41;7387191;19;20448;-56
2022/04/19 06:22:03;;;;;;;17.92;11.27;;;;;;;11.39;47.04;101390.16;7387042;19;20021;-58
2022/04/19 06:24:32;;;;;;;16.63;11.23;;;;;;;11.55;46.71;101392.19;7390640;19;20121;-53
2022/04/19 06:27:01;;;;;;;17.50;11.45;;;;;;;11.66;46.23;101389.13;7391410;19;20021;-55
2022/04/19 06:29:30;;;;;;;17.30;11.25;;;;;;;11.69;46.76;101389.00;7387303;19;20019;-58
2022/04/19 06:32:03;;;;;;;18.88;11.60;;;;;;;11.80;46.05;101386.81;7387784;19;20018;-55
2022/04/19 06:34:40;;;;;;;16.95;10.85;;;;;;;11.88;45.64;101395.22;7388933;19;20006;-57
2022/04/19 06:37:15;;;;;;;21.48;11.70;;;;;;;12.00;45.77;101398.31;7388200;19;20010;-53
2022/04/19 06:39:48;;;;;;;19.40;11.30;;;;;;;12.08;46.59;101401.47;7388333;19;20030;-56
2022/04/19 06:42:18;;;;;;;25.67;12.30;;;;;;;12.14;46.30;101397.75;7387787;19;20107;-58
2022/04/19 06:45:14;;;;;;;22.50;11.77;;;;;;;12.24;45.47;101394.66;7389570;19;20014;-57
2022/04/19 06:47:51;;;;;;;18.52;10.93;;;;;;;12.33;44.94;101400.44;7390272;19;20020;-54
2022/04/19 06:50:23;;;;;;;16.55;11.38;;;;;;;12.36;44.78;101397.69;7388826;19;20014;-58
2022/04/19 06:52:52;;;;;;;16.38;10.60;;;;;;;12.36;44.33;101395.06;7388494;19;20025;-55
2022/04/19 06:55:40;;;;;;;17.70;10.93;;;;;;;12.31;43.83;101403.16;7393484;19;20086;-52
2022/04/19 06:58:09;;;;;;;16.27;10.40;;;;;;;12.49;44.05;101398.88;7393343;19;20039;-56
2022/04/19 07:00:38;;;;;;;17.65;10.07;;;;;;;12.66;44.30;101399.91;7394492;19;20444;-53
2022/04/19 07:03:10;;;;;;;18.33;10.73;;;;;;;12.67;43.51;101406.91;7399761;19;20038;-58
2022/04/19 07:06:05;;;;;;;16.05;10.32;;;;;;;12.78;43.02;101410.75;7403013;19;20018;-56
2022/04/19 07:08:35;;;;;;;15.77;10.32;;;;;;;12.97;43.72;101423.09;7403640;19;20014;-51
2022/04/19 07:11:05;;;;;;;25.67;10.98;;;;;;;13.02;42.84;101409.72;7405464;19;20029;-54
2022/04/19 07:13:53;;;;;;;20.35;11.15;;;;;;;13.01;43.08;101413.28;7420778;19;20018;-59
2022/04/19 07:17:00;;;;;;;20.52;10.88;;;;;;;13.21;42.96;101407.09;7400193;19;20010;-54
2022/04/19 07:27:44;;;;;;;15.02;9.50;;;;;;;13.39;41.82;101418.59;7398722;19;20022;-56
2022/04/19 07:30:20;;;;;;;19.92;9.50;;;;;;;13.58;41.44;101421.22;7398263;19;20011;-57
2022/04/19 07:32:49;;;;;;;16.70;10.07;;;;;;;13.71;41.62;101427.63;7400882;19;20018;-56
2022/04/19 07:35:25;;;;;;;;;;;;;;;13.84;42.21;101430.53;7401879;19;20018;-59
2022/04/19 07:37:54;;;;;;;17.08;9.73;;;;;;;13.98;41.55;101429.84;7399956;19;19995;-56
2022/04/19 07:40:29;;;;;;;22.92;9.32;;;;;;;13.79;41.27;101436.00;7399393;19;20479;-58
2022/04/19 07:42:58;;;;;;;14.00;9.07;;;;;;;13.85;41.11;101426.94;7403628;19;20029;-56
2022/04/19 07:45:27;;;;;;;14.98;8.90;;;;;;;13.98;41.70;101433.34;7404033;19;20482;-55
2022/04/19 07:47:57;;;;;;;14.00;9.02;;;;;;;14.06;41.17;101432.97;7397946;19;20015;-54
2022/04/19 07:50:28;;;;;;;15.15;9.35;;;;;;;13.98;40.67;101428.09;7396937;19;20022;-52
2022/04/19 07:52:57;;;;;;;15.25;8.98;;;;;;;14.11;40.94;101430.09;7394136;19;20367;-52
2022/04/19 07:55:27;;;;;;;11.27;7.75;;;;;;;14.13;40.76;101428.25;7397144;19;20018;-57
2022/04/19 07:57:56;;;;;;;12.95;7.88;;;;;;;14.24;40.88;101433.84;7395778;19;20038;-52
2022/04/19 08:00:27;;;;;;;18.50;8.07;;;;;;;14.31;40.32;101437.00;7395633;19;20022;-51
2022/04/19 08:02:57;;;;;;;118.88;15.15;;;;;;;14.36;40.07;101432.38;7395291;19;20102;-54
2022/04/19 08:05:29;;;;;;;12.15;8.05;;;;;;;14.60;40.19;101434.66;7396827;19;20010;-50
2022/04/19 08:08:00;;;;;;;11.45;6.60;;;;;;;14.61;39.37;101425.84;7394135;19;20013;-51
2022/04/19 08:10:29;;;;;;;21.67;8.18;;;;;;;14.67;39.14;101431.69;7395246;19;20472;-55
2022/04/19 08:12:58;;;;;;;13.20;6.97;;;;;;;14.58;39.13;101428.63;7391715;19;20014;-52
2022/04/19 08:15:27;;;;;;;16.08;7.47;;;;;;;14.74;40.14;101426.09;7395589;19;20017;-57
2022/04/19 08:17:56;;;;;;;12.02;7.57;;;;;;;14.55;40.08;101434.91;7395595;19;20007;-52
2022/04/19 08:20:25;;;;;;;14.90;8.23;;;;;;;14.60;39.57;101425.00;7395230;19;20521;-52
2022/04/19 08:22:58;;;;;;;11.93;7.18;;;;;;;14.73;39.78;101419.09;7394764;19;20022;-51
2022/04/19 08:25:28;;;;;;;11.05;7.30;;;;;;;14.97;39.72;101423.09;7395410;19;20523;-52
2022/04/19 08:27:57;;;;;;;12.48;7.50;;;;;;;14.95;39.43;101421.47;7395000;19;20104;-54
2022/04/19 08:30:26;;;;;;;14.25;7.28;;;;;;;15.03;39.14;101419.28;7394445;19;20026;-52
2022/04/19 08:32:55;;;;;;;12.88;7.45;;;;;;;14.95;39.25;101419.69;7393373;19;20014;-52
2022/04/19 08:35:24;;;;;;;25.42;8.52;;;;;;;14.86;40.94;101418.38;7396176;19;20024;-52
2022/04/19 08:37:57;;;;;;;14.20;7.85;;;;;;;15.15;40.12;101420.41;7395682;19;20022;-52
2022/04/19 08:40:27;;;;;;;11.40;7.05;;;;;;;15.07;39.56;101425.25;7395214;19;20078;-59
2022/04/19 08:43:00;;;;;;;14.70;7.45;;;;;;;14.96;39.42;101417.88;7398380;19;20011;-52
2022/04/19 08:45:29;;;;;;;15.45;8.77;;;;;;;15.06;40.47;101421.75;7394043;19;20006;-55
2022/04/19 08:48:00;;;;;;;11.43;7.35;;;;;;;14.99;40.87;101421.22;7396717;19;20018;-59
2022/04/19 08:50:30;;;;;;;13.48;8.00;;;;;;;15.44;40.96;101417.97;7395392;19;20112;-53
2022/04/19 08:58:25;;;;;;;10.77;7.13;;;;;;;15.57;39.79;101417.22;7396561;19;20122;-58
2022/04/19 09:00:53;;;;;;;11.50;7.28;;;;;;;15.58;38.85;101421.53;7395359;19;20015;-56
2022/04/19 09:03:22;;;;;;;14.93;7.00;;;;;;;15.63;38.54;101421.28;7393951;19;20018;-57
2022/04/19 09:05:52;;;;;;;11.98;7.25;;;;;;;15.33;38.17;101432.63;7395813;19;20022;-54
2022/04/19 09:08:24;;;;;;;10.68;6.78;;;;;;;15.50;39.01;101423.78;7396300;19;20491;-57
2022/04/19 09:11:07;;;;;;;12.45;6.68;;;;;;;15.60;38.30;101420.59;7393719;19;20021;-55
2022/04/19 09:13:36;;;;;;;11.48;6.75;;;;;;;15.50;38.29;101421.13;7406758;19;20010;-56
2022/04/19 09:16:06;;;;;;;14.20;6.88;;;;;;;15.59;38.25;101419.75;7415123;19;20111;-59
2022/04/19 09:18:37;;;;;;;12.23;6.45;;;;;;;15.74;37.83;101418.03;7395659;19;20029;-53
2022/04/19 09:21:08;;;;;;;10.73;5.97;;;;;;;15.63;37.33;101413.38;7396355;19;20018;-53
2022/04/19 09:23:39;;;;;;;11.70;5.82;;;;;;;15.59;37.39;101419.75;7392158;19;20040;-56
2022/04/19 09:26:09;;;;;;;10.60;6.25;;;;;;;16.01;38.00;101417.44;7394883;19;20010;-54
2022/04/19 09:28:39;;;;;;;15.63;6.13;;;;;;;15.91;37.08;101420.59;7393994;19;20021;-54
2022/04/19 09:31:12;;;;;;;10.68;5.30;;;;;;;16.09;36.81;101410.75;7392841;19;20014;-54
2022/04/19 09:33:41;;;;;;;10.80;4.93;;;;;;;16.21;36.64;101411.84;7392757;19;20046;-56
2022/04/19 09:36:10;;;;;;;10.43;5.47;;;;;;;16.50;37.20;101411.06;7395218;19;19999;-55
2022/04/19 09:38:43;;;;;;;24.90;6.82;;;;;;;16.62;37.33;101405.03;7394722;19;20022;-59
2022/04/19 09:41:16;;;;;;;14.20;5.97;;;;;;;16.75;36.28;101403.34;7393399;19;20014;-54
2022/04/19 09:43:45;;;;;;;10.25;6.10;;;;;;;16.82;36.40;101405.59;7393832;19;20070;-54
2022/04/19 09:46:16;;;;;;;11.00;5.47;;;;;;;16.51;36.37;101410.13;7393039;19;20417;-56
2022/04/19 09:48:50;;;;;;;9.77;5.75;;;;;;;16.63;37.04;101406.72;7394393;19;20526;-57
2022/04/19 09:51:19;;;;;;;13.43;5.53;;;;;;;16.70;35.96;101393.97;7392287;19;20021;-56
2022/04/19 09:53:52;;;;;;;10.30;5.72;;;;;;;16.37;36.19;101390.63;7391206;19;20082;-54
2022/04/19 09:56:22;;;;;;;9.52;5.82;;;;;;;16.37;37.23;101393.25;7393382;19;20015;-54
2022/04/19 09:58:53;;;;;;;14.10;5.80;;;;;;;16.52;36.80;101393.28;7393950;19;20037;-53
2022/04/19 10:09:34;;;;;;;20.35;6.95;;;;;;;16.89;36.92;101385.78;7392860;19;20333;-55
2022/04/19 10:12:03;;;;;;;10.07;7.05;;;;;;;17.03;36.88;101384.94;7391886;19;20023;-54
2022/04/19 10:14:33;;;;;;;13.48;6.82;;;;;;;17.27;36.50;101378.06;7392627;19;20033;-59
2022/04/19 10:17:03;;;;;;;21.45;7.03;;;;;;;17.08;36.08;101370.47;7391456;19;20356;-54
2022/04/19 10:19:33;;;;;;;11.15;6.15;;;;;;;16.83;36.04;101376.38;7392162;19;20111;-55
2022/04/19 10:22:08;;;;;;;13.15;6.68;;;;;;;17.32;36.48;101376.94;7392840;19;20766;-53
2022/04/19 10:24:52;;;;;;;12.95;6.80;;;;;;;17.32;35.47;101376.94;7394542;19;20011;-55
2022/04/19 10:27:21;;;;;;;12.23;7.20;;;;;;;17.38;35.11;101376.53;7391828;19;20029;-55
2022/04/19 10:29:53;;;;;;;11.30;7.28;;;;;;;17.11;36.35;101364.13;7391544;19;20021;-53
2022/04/19 10:32:33;;;;;;;10.35;6.35;;;;;;;17.24;35.47;101374.78;7392852;19;20025;-54
2022/04/19 10:35:03;;;;;;;11.60;6.63;;;;;;;17.20;35.64;101368.81;7392528;19;20368;-52
2022/04/19 10:37:32;;;;;;;10.57;6.10;;;;;;;17.54;35.33;101368.47;7398867;19;20030;-57
2022/04/19 10:40:12;;;;;;;12.68;6.10;;;;;;;17.61;35.04;101361.81;7400193;19;20082;-52
2022/04/19 10:42:43;;;;;;;10.30;5.20;;;;;;;17.79;35.01;101365.03;7396856;19;20022;-52
2022/04/19 10:45:25;;;;;;;10.10;5.53;;;;;;;17.73;35.06;101368.13;7399236;19;20023;-53
2022/04/19 10:48:08;;;;;;;13.80;5.72;;;;;;;17.51;34.77;101358.06;7399175;19;20025;-57
2022/04/19 10:50:39;;;;;;;10.93;5.57;;;;;;;17.74;34.29;101356.56;7397962;19;20479;-56
2022/04/19 10:53:10;;;;;;;12.07;5.80;;;;;;;17.59;34.77;101361.91;7399075;19;20019;-55
2022/04/19 10:55:43;;;;;;;10.18;5.85;;;;;;;17.43;34.62;101361.22;7399955;19;20015;-55
2022/04/19 10:58:20;;;;;;;10.32;6.00;;;;;;;17.55;34.89;101355.13;7399176;19;20025;-59
2022/04/19 11:00:55;;;;;;;10.38;5.97;;;;;;;18.03;34.13;101344.03;7396916;19;20022;-62
2022/04/19 11:03:46;;;;;;;15.90;6.50;;;;;;;18.11;35.44;101349.69;7400895;19;20015;-55
2022/04/19 11:06:32;;;;;;;9.23;6.00;;;;;;;18.05;33.85;101344.78;7398448;19;20403;-57
2022/04/19 11:09:19;;;;;;;9.30;5.85;;;;;;;18.16;34.96;101346.72;7397904;19;20043;-59
2022/04/19 11:11:56;;;;;;;16.17;6.70;;;;;;;18.05;35.83;101339.47;7397971;19;20018;-59
2022/04/19 11:14:48;;;;;;;8.68;6.18;;;;;;;18.47;34.66;101342.78;7396222;19;20033;-56
2022/04/19 11:17:23;;;;;;;12.80;6.18;;;;;;;18.89;34.25;101334.59;7393502;19;20026;-57
2022/04/19 11:19:55;;;;;;;24.33;6.70;;;;;;;18.83;34.75;101337.66;7424610;19;20015;-61
2022/04/19 11:22:30;;;;;;;10.93;6.03;;;;;;;18.94;34.16;101332.47;7399122;19;20022;-60
2022/04/19 11:25:04;;;;;;;10.73;6.78;;;;;;;18.56;34.28;101351.91;7398003;19;20049;-58
2022/04/19 11:28:03;;;;;;;10.57;6.45;;;;;;;18.32;34.55;101334.09;7396236;19;20022;-57
2022/04/19 11:30:34;;;;;;;22.13;6.75;;;;;;;18.47;34.90;101334.84;7397896;19;20021;-57
2022/04/19 11:33:04;;;;;;;18.13;7.30;;;;;;;18.88;34.40;101340.03;7401354;19;20025;-59
2022/04/19 11:35:33;;;;;;;11.10;7.00;;;;;;;19.26;33.85;101339.91;7403466;19;20018;-60
2022/04/19 11:38:08;;;;;;;11.00;6.60;;;;;;;18.95;34.41;101328.00;7402059;19;20014;-59
2022/04/19 11:48:52;;;;;;;12.30;6.78;;;;;;;19.80;32.73;101329.81;7395500;19;20015;-59
2022/04/19 11:51:22;;;;;;;11.98;6.80;;;;;;;18.86;33.70;101318.88;7394097;19;20021;-56
2022/04/19 11:53:52;;;;;;;12.20;7.18;;;;;;;18.90;34.35;101323.03;7393736;19;20094;-61
2022/04/19 11:56:21;;;;;;;10.20;5.95;;;;;;;19.48;33.86;101323.25;7394881;19;20021;-61
2022/04/19 11:58:52;;;;;;;10.55;5.80;;;;;;;19.49;33.24;101327.59;7395563;19;20017;-59
2022/04/19 12:01:23;;;;;;;7.95;5.47;;;;;;;19.60;33.74;101324.16;7396171;19;20023;-56
2022/04/19 12:03:52;;;;;;;8.65;5.47;;;;;;;19.40;33.17;101333.59;7394332;19;20348;-56
2022/04/19 12:06:22;;;;;;;9.07;5.72;;;;;;;18.93;33.80;101319.31;7396316;19;20073;-59
2022/04/19 12:08:53;;;;;;;26.98;6.18;;;;;;;19.36;33.56;101318.84;7396483;19;20010;-56
2022/04/19 12:11:24;;;;;;;8.88;5.60;;;;;;;19.28;33.09;101322.03;7401398;19;20495;-57
2022/04/19 12:13:54;;;;;;;10.05;5.38;;;;;;;18.73;33.87;101308.28;7400974;19;20019;-59
2022/04/19 12:16:33;;;;;;;10.70;5.47;;;;;;;19.04;34.22;101311.41;7399499;19;20026;-54